Nearby METAR Reports

 

CYKA - Kamloops Airport
Distance from station: SSW 65km
Updated: 2024-07-18 03:00
Mostly cloudy
Mostly cloudy
 Wind from ESE
Wind: ESE 6 km/h
Temperature: 23°C
Dew Point: 10°C
Humidity: 44%
Barometer: 1012.9 hPa
Clouds: Mostly cloudy
Visibility: 32 km
Cloud details: Partly cloudy 4267 m
Mostly cloudy 6096 m
2024/07/18 10:00 CYKA 181000Z 12003KT 060V160 20SM SCT140 BKN200 23/10 A2991 RMK AC3CI2 FU SLP121 DENSITY ALT 2400FT
CWSL - Salmon Arm Autob
Distance from station: SE 90km
Updated: 2024-07-18 03:00

 Wind from SE
Wind: SE 4 km/h
Temperature: 26°C
Dew Point: 14°C
Humidity: 48%
2024/07/18 10:00 CWSL 181000Z AUTO 13002KT 26/14 RMK AO1 SLP130 T02560135 50022
CYIN - Bleibler Ranch
Distance from station: W 103km
Updated: 2024-07-18 03:00
Mostly cloudy
Mostly cloudy
 Wind from calm
Wind: Calm
Temperature: 16°C
Dew Point: 6°C
Humidity: 52%
Barometer: 1016.9 hPa
Clouds: Mostly cloudy
Visibility: 14 km
Cloud details: Mostly cloudy 4267 m
2024/07/18 10:00 CYIN 181000Z AUTO 00000KT 9SM BKN140 16/06 A3003 RMK SLP139 DENSITY ALT 4600FT
 
CYCP - Blue River (man)
Distance from station: NNE 116km
Updated: 2024-07-17 18:00
NOT Current
Mostly cloudy
Mostly cloudy
 Wind from varies
Wind: varies 4 km/h
Temperature: 24°C
Dew Point: 18°C
Humidity: 69%
Barometer: 1013.9 hPa
Clouds: Mostly cloudy
Visibility: 24 km
Cloud details: Mostly cloudy 3353 m
Mostly cloudy 4572 m
2024/07/18 01:00 CYCP 180100Z VRB02KT 15SM BKN110CB BKN150 24/18 A2994 RMK CB5AC1 LAST STFD OBS/NXT 181300Z SLP142 DENSITY ALT 3800FT
CYLW - Kelowna Airport
Distance from station: SSE 157km
Updated: 2024-07-18 03:00
Clear
Clear
 Wind from NW
Wind: NW 31 km/h
Temperature: 28°C
Dew Point: 10°C
Humidity: 32%
Barometer: 1013.9 hPa
Clouds: Clear
Visibility: 14 km
2024/07/18 10:00 CYLW 181000Z AUTO 31017KT 9SM CLR 28/10 A2994 RMK SLP127 DENSITY ALT 3200FT
CYWL - Williams Lake Airport
Distance from station: NW 164km
Updated: 2024-07-18 03:00
Few Clouds
Few Clouds
 Wind from NW
Wind: NW 13 km/h
Temperature: 19°C
Dew Point: 7°C
Humidity: 46%
Barometer: 1015.9 hPa
Clouds: Few Clouds
Visibility: 24 km
Cloud details: Few Clouds 5486 m
2024/07/18 10:00 CYWL 181000Z 32007KT 15SM FEW180 19/07 A3000 RMK AC2 SLP141 DENSITY ALT 4200FT